Time,TemperatureF,DewpointF,PressureIn,WindDirection,WindDirectionDegrees,WindSpeedMPH,WindSpeedGustMPH,Humidity,HourlyPrecipIn,Conditions,Clouds,dailyrainin,SolarRadiationWatts/m^2,SoftwareType,DateUTC
2013-02-23 01:00:00,25.0,19.0,29.60,SW,219,7.0,-999.0,76,-99.99,,,-99.99,0.030000,,2013-02-23 08:00:00,
2013-02-23 01:52:00,25.0,19.0,29.60,SW,219,7.0,-999.0,76,-99.99,,,-99.99,0.030000,,2013-02-23 08:52:00,
2013-02-23 02:00:00,25.0,19.0,29.58,SSW,204,8.0,-999.0,76,-99.99,,,-99.99,0.030000,,2013-02-23 09:00:00,
2013-02-23 02:52:00,25.0,19.0,29.58,SSW,204,8.0,-999.0,76,-99.99,,,-99.99,0.030000,,2013-02-23 09:52:00,
2013-02-23 03:00:00,27.0,19.0,29.57,SSW,212,8.0,-999.0,72,-99.99,,,-99.99,0.030000,,2013-02-23 10:00:00,
2013-02-23 03:52:00,27.0,19.0,29.57,SSW,212,8.0,-999.0,72,-99.99,,,-99.99,0.030000,,2013-02-23 10:52:00,
2013-02-23 04:00:00,27.0,19.0,29.55,SW,215,9.0,-999.0,71,-99.99,,,-99.99,0.040000,,2013-02-23 11:00:00,
2013-02-23 04:52:00,27.0,19.0,29.55,SW,215,9.0,-999.0,71,-99.99,,,-99.99,0.040000,,2013-02-23 11:52:00,
2013-02-23 05:00:00,28.0,19.0,29.55,SW,215,8.0,-999.0,68,-99.99,,,-99.99,0.020000,,2013-02-23 12:00:00,
2013-02-23 05:52:00,28.0,19.0,29.55,SW,215,8.0,-999.0,68,-99.99,,,-99.99,0.020000,,2013-02-23 12:52:00,
2013-02-23 06:00:00,28.0,19.0,29.55,SW,219,10.0,-999.0,69,-99.99,,,-99.99,0.020000,,2013-02-23 13:00:00,
2013-02-23 06:52:00,28.0,19.0,29.55,SW,219,10.0,-999.0,69,-99.99,,,-99.99,0.020000,,2013-02-23 13:52:00,
2013-02-23 07:00:00,29.0,19.0,29.55,SSW,213,10.0,-999.0,64,-99.99,,,-99.99,1.330000,,2013-02-23 14:00:00,
2013-02-23 07:52:00,29.0,19.0,29.55,SSW,213,10.0,-999.0,64,-99.99,,,-99.99,1.330000,,2013-02-23 14:52:00,
2013-02-23 08:00:00,31.0,20.0,29.55,SW,221,13.0,-999.0,62,-99.99,,,-99.99,18.740000,,2013-02-23 15:00:00,
2013-02-23 08:52:00,31.0,20.0,29.55,SW,221,13.0,-999.0,62,-99.99,,,-99.99,18.740000,,2013-02-23 15:52:00,
2013-02-23 09:00:00,35.0,21.0,29.57,SW,219,11.0,-999.0,56,-99.99,,,-99.99,89.300003,,2013-02-23 16:00:00,
2013-02-23 09:52:00,35.0,21.0,29.57,SW,219,11.0,-999.0,56,-99.99,,,-99.99,89.300003,,2013-02-23 16:52:00,
2013-02-23 10:00:00,39.0,23.0,29.57,SW,232,5.0,-999.0,53,-99.99,,,-99.99,176.600006,,2013-02-23 17:00:00,
2013-02-23 10:52:00,39.0,23.0,29.57,SW,232,5.0,-999.0,53,-99.99,,,-99.99,176.600006,,2013-02-23 17:52:00,
2013-02-23 11:00:00,43.0,24.0,29.57,WSW,249,9.0,-999.0,47,-99.99,,,-99.99,249.199997,,2013-02-23 18:00:00,
2013-02-23 11:52:00,43.0,24.0,29.57,WSW,249,9.0,-999.0,47,-99.99,,,-99.99,249.199997,,2013-02-23 18:52:00,
2013-02-23 12:00:00,43.0,23.0,29.58,WSW,249,11.0,-999.0,46,-99.99,,,-99.99,274.299988,,2013-02-23 19:00:00,
2013-02-23 12:52:00,43.0,23.0,29.58,WSW,249,11.0,-999.0,46,-99.99,,,-99.99,274.299988,,2013-02-23 19:52:00,
2013-02-23 13:00:00,44.0,25.0,29.59,WSW,255,11.0,-999.0,47,-99.99,,,-99.99,203.500000,,2013-02-23 20:00:00,
2013-02-23 13:53:00,44.0,25.0,29.59,WSW,255,11.0,-999.0,47,-99.99,,,-99.99,203.500000,,2013-02-23 20:53:00,
2013-02-23 14:00:00,43.0,27.0,29.60,WNW,289,10.0,-999.0,53,-99.99,,,-99.99,174.100006,,2013-02-23 21:00:00,
2013-02-23 14:52:00,43.0,27.0,29.60,WNW,289,10.0,-999.0,53,-99.99,,,-99.99,174.100006,,2013-02-23 21:52:00,
2013-02-23 15:00:00,43.0,28.0,29.62,NW,312,13.0,-999.0,56,-99.99,,,-99.99,177.600006,,2013-02-23 22:00:00,
2013-02-23 15:52:00,43.0,28.0,29.62,NW,312,13.0,-999.0,56,-99.99,,,-99.99,177.600006,,2013-02-23 22:52:00,
2013-02-23 16:00:00,39.0,26.0,29.64,NW,313,14.0,-999.0,59,-99.99,,,-99.99,163.600006,,2013-02-23 23:00:00,
2013-02-23 16:52:00,39.0,26.0,29.64,NW,313,14.0,-999.0,59,-99.99,,,-99.99,163.600006,,2013-02-23 23:52:00,
2013-02-23 17:00:00,38.0,27.0,29.67,NW,319,11.0,-999.0,65,-99.99,,,-99.99,48.830002,,2013-02-24 00:00:00,
2013-02-23 17:52:00,38.0,27.0,29.67,NW,319,11.0,-999.0,65,-99.99,,,-99.99,48.830002,,2013-02-24 00:52:00,
2013-02-23 18:00:00,35.0,27.0,29.70,NW,317,9.0,-999.0,71,-99.99,,,-99.99,5.180000,,2013-02-24 01:00:00,
2013-02-23 18:52:00,35.0,27.0,29.70,NW,317,9.0,-999.0,71,-99.99,,,-99.99,5.180000,,2013-02-24 01:52:00,
2013-02-23 19:00:00,34.0,27.0,29.73,NW,309,8.0,-999.0,75,-99.99,,,-99.99,0.040000,,2013-02-24 02:00:00,
2013-02-23 19:52:00,34.0,27.0,29.73,NW,309,8.0,-999.0,75,-99.99,,,-99.99,0.040000,,2013-02-24 02:52:00,
2013-02-23 20:00:00,34.0,28.0,29.75,WNW,294,5.0,-999.0,78,-99.99,,,-99.99,0.030000,,2013-02-24 03:00:00,
2013-02-23 20:52:00,34.0,28.0,29.75,WNW,294,5.0,-999.0,78,-99.99,,,-99.99,0.030000,,2013-02-24 03:52:00,
2013-02-23 21:00:00,33.0,27.0,29.77,WNW,290,6.0,-999.0,76,-99.99,,,-99.99,0.030000,,2013-02-24 04:00:00,
2013-02-23 21:52:00,33.0,27.0,29.77,WNW,290,6.0,-999.0,76,-99.99,,,-99.99,0.030000,,2013-02-24 04:52:00,
2013-02-23 22:00:00,34.0,26.0,29.78,West,273,7.0,-999.0,72,-99.99,,,-99.99,0.030000,,2013-02-24 05:00:00,
2013-02-23 22:52:00,34.0,26.0,29.78,West,273,7.0,-999.0,72,-99.99,,,-99.99,0.030000,,2013-02-24 05:52:00,
2013-02-23 23:00:00,35.0,27.0,29.79,West,279,12.0,-999.0,73,-99.99,,,-99.99,0.030000,,2013-02-24 06:00:00,
2013-02-23 23:52:00,35.0,27.0,29.79,West,279,12.0,-999.0,73,-99.99,,,-99.99,0.030000,,2013-02-24 06:52:00,